Time;durP1;ratioP1;P1;durP2;ratioP2;P2;SDS_P1;SDS_P2;PMS_P1;PMS_P2;Temp;Humidity;BMP_temperature;BMP_pressure;BME280_temperature;BME280_humidity;BME280_pressure;Samples;Min_cycle;Max_cycle;Signal;HPM_P1;HPM_P2
2023/06/25 00:00:30;;;;;;;21.13;17.93;;;;;;;17.30;100.00;101598.41;4942507;29;20419;-66
2023/06/25 00:03:01;;;;;;;21.10;18.10;;;;;;;17.34;100.00;101601.50;4938300;29;20730;-66
2023/06/25 00:05:30;;;;;;;19.53;17.43;;;;;;;17.37;100.00;101601.91;4935645;29;20969;-65
2023/06/25 00:07:59;;;;;;;23.17;20.20;;;;;;;17.47;100.00;101598.63;4934820;29;20442;-66
2023/06/25 00:10:28;;;;;;;24.60;19.30;;;;;;;17.63;100.00;101594.41;4936039;29;20470;-64
2023/06/25 00:12:57;;;;;;;20.83;18.60;;;;;;;17.75;100.00;101601.63;4938052;29;20511;-65
2023/06/25 00:15:27;;;;;;;20.60;18.50;;;;;;;17.83;100.00;101599.63;5043998;23;20478;-67
2023/06/25 00:17:56;;;;;;;23.60;20.10;;;;;;;17.90;100.00;101603.09;4937499;29;20456;-67
2023/06/25 00:20:28;;;;;;;22.47;19.83;;;;;;;17.98;100.00;101597.28;4943695;29;20428;-67
2023/06/25 00:22:57;;;;;;;22.33;19.93;;;;;;;18.03;100.00;101595.50;4939023;29;20789;-68
2023/06/25 00:25:33;;;;;;;20.07;17.97;;;;;;;18.19;100.00;101594.00;4937305;29;20428;-68
2023/06/25 00:28:02;;;;;;;20.80;18.67;;;;;;;18.23;100.00;101595.19;4936628;29;20813;-68
2023/06/25 00:30:31;;;;;;;20.80;18.67;;;;;;;18.30;100.00;101601.38;4940170;29;20891;-67
2023/06/25 00:33:00;;;;;;;20.10;17.97;;;;;;;18.41;100.00;101592.34;4934811;29;20411;-67
2023/06/25 00:36:02;;;;;;;23.43;19.00;;;;;;;18.48;100.00;101593.09;4939362;29;20429;-67
2023/06/25 00:38:31;;;;;;;26.97;19.40;;;;;;;18.52;99.78;101593.44;4936652;29;20417;-67
2023/06/25 00:41:00;;;;;;;22.73;19.23;;;;;;;18.69;98.81;101591.66;4939359;29;20502;-66
2023/06/25 00:43:29;;;;;;;22.83;19.30;;;;;;;18.63;99.01;101590.75;4936309;29;20444;-66
2023/06/25 00:45:59;;;;;;;22.87;18.87;;;;;;;18.62;99.52;101588.25;4943037;29;20443;-67
2023/06/25 00:48:28;;;;;;;23.30;20.23;;;;;;;18.61;100.00;101586.56;4937523;29;20523;-67
2023/06/25 00:51:01;;;;;;;24.67;19.77;;;;;;;18.59;99.72;101586.78;4937717;29;20918;-68
2023/06/25 00:53:35;;;;;;;23.80;20.00;;;;;;;18.58;99.83;101585.16;4947909;28;20416;-68
2023/06/25 00:56:05;;;;;;;22.20;19.63;;;;;;;18.66;99.83;101584.78;4940629;29;20414;-67
2023/06/25 00:58:38;;;;;;;21.10;18.90;;;;;;;18.65;100.00;101577.63;4940356;29;20433;-67
2023/06/25 01:01:15;;;;;;;22.13;18.30;;;;;;;18.66;99.65;101584.78;4944065;29;20936;-67
2023/06/25 01:03:54;;;;;;;21.97;19.67;;;;;;;18.68;99.11;101579.06;4936948;29;20438;-68
2023/06/25 01:06:30;;;;;;;20.60;18.40;;;;;;;18.69;98.46;101577.16;4935886;29;20435;-67
2023/06/25 01:09:00;;;;;;;22.10;19.33;;;;;;;18.69;97.68;101583.44;4945274;29;20918;-67
2023/06/25 01:11:30;;;;;;;21.60;19.30;;;;;;;18.72;97.48;101584.91;4937180;29;20839;-67
2023/06/25 01:14:02;;;;;;;21.47;19.27;;;;;;;18.71;97.45;101575.00;4939694;29;20491;-67
2023/06/25 01:16:32;;;;;;;18.90;17.10;;;;;;;18.72;97.26;101576.66;4933231;29;20479;-67
2023/06/25 01:19:02;;;;;;;20.80;18.57;;;;;;;18.72;97.21;101577.50;4930265;29;20483;-67
2023/06/25 01:21:36;;;;;;;23.03;20.60;;;;;;;18.73;97.33;101579.19;4944082;29;20435;-68
2023/06/25 01:24:07;;;;;;;20.33;17.63;;;;;;;18.75;96.60;101577.03;4939105;29;20733;-67
2023/06/25 01:26:37;;;;;;;21.83;18.63;;;;;;;18.82;95.57;101576.91;4940243;29;20464;-67
2023/06/25 01:29:06;;;;;;;19.27;16.80;;;;;;;18.85;95.67;101576.41;4933204;29;20837;-68
2023/06/25 01:31:35;;;;;;;19.73;17.53;;;;;;;18.87;94.52;101574.28;4936060;29;20415;-66
2023/06/25 01:34:04;;;;;;;19.73;17.27;;;;;;;18.91;92.78;101578.19;4935012;29;20510;-67
2023/06/25 01:36:40;;;;;;;19.90;16.23;;;;;;;18.93;91.87;101573.28;4944378;29;20428;-68
2023/06/25 01:39:10;;;;;;;16.73;15.07;;;;;;;18.99;91.09;101572.31;4941092;29;20447;-68
2023/06/25 01:41:39;;;;;;;17.00;15.40;;;;;;;19.03;88.88;101565.28;4937339;29;20456;-68
2023/06/25 01:44:08;;;;;;;16.30;14.07;;;;;;;19.08;87.73;101562.66;4931085;29;20447;-66
2023/06/25 01:46:43;;;;;;;16.23;14.27;;;;;;;19.15;86.37;101566.09;4936577;29;20537;-67
2023/06/25 01:49:13;;;;;;;18.27;14.80;;;;;;;19.18;84.40;101562.88;4934461;29;20434;-66
2023/06/25 01:51:58;;;;;;;18.90;14.90;;;;;;;19.21;83.00;101565.13;4950108;28;20812;-67
2023/06/25 01:54:29;;;;;;;14.47;12.93;;;;;;;19.24;82.29;101563.81;4936248;29;20420;-67
2023/06/25 01:56:59;;;;;;;16.63;14.17;;;;;;;19.25;81.09;101558.09;4935481;29;20977;-66
2023/06/25 01:59:28;;;;;;;16.07;13.57;;;;;;;19.28;82.61;101554.84;4939780;29;20892;-66
2023/06/25 02:01:57;;;;;;;15.63;13.07;;;;;;;19.31;80.66;101556.28;4936330;29;20884;-67
2023/06/25 02:04:26;;;;;;;14.73;12.53;;;;;;;19.33;80.36;101556.84;4938236;29;20857;-68
2023/06/25 02:06:56;;;;;;;14.03;12.53;;;;;;;19.32;80.41;101549.69;4934510;29;20516;-68
2023/06/25 02:09:25;;;;;;;14.60;12.73;;;;;;;19.33;80.17;101549.47;4934308;29;20465;-67
2023/06/25 02:11:56;;;;;;;15.23;13.60;;;;;;;19.33;80.17;101552.19;4937399;29;20447;-68
2023/06/25 02:14:25;;;;;;;15.93;11.40;;;;;;;19.36;79.11;101549.00;4934756;29;20444;-68
2023/06/25 02:16:54;;;;;;;13.03;11.40;;;;;;;19.35;79.12;101552.81;4933699;29;20431;-67
2023/06/25 02:19:23;;;;;;;15.20;13.60;;;;;;;19.35;78.84;101554.72;4933584;29;20502;-67
2023/06/25 02:21:52;;;;;;;16.00;11.77;;;;;;;19.35;78.93;101549.22;4939042;29;20424;-67
2023/06/25 02:24:22;;;;;;;12.33;11.10;;;;;;;19.38;80.73;101551.47;4941589;29;21005;-67
2023/06/25 02:26:51;;;;;;;14.87;12.03;;;;;;;19.38;82.18;101544.06;4938237;29;20533;-67
2023/06/25 02:29:21;;;;;;;16.90;15.10;;;;;;;19.38;85.06;101555.03;4936790;29;20966;-67
2023/06/25 02:31:51;;;;;;;22.00;15.93;;;;;;;19.41;85.76;101553.75;4936977;29;20433;-67
2023/06/25 02:34:20;;;;;;;17.30;15.50;;;;;;;19.46;86.60;101551.94;4940543;29;20465;-68
2023/06/25 02:36:50;;;;;;;22.10;15.83;;;;;;;19.44;86.27;101553.28;4938585;29;20426;-68
2023/06/25 02:39:19;;;;;;;21.80;14.63;;;;;;;19.36;89.32;101549.00;4939549;29;20444;-67
2023/06/25 02:41:48;;;;;;;16.50;14.80;;;;;;;19.31;89.04;101548.88;4941955;29;20407;-67
2023/06/25 02:44:17;;;;;;;19.13;15.37;;;;;;;19.28;87.84;101549.34;4942337;29;20873;-67
2023/06/25 02:46:48;;;;;;;17.00;15.30;;;;;;;19.30;89.18;101549.13;4937770;29;20427;-67
2023/06/25 02:49:17;;;;;;;17.63;15.63;;;;;;;19.30;88.43;101547.22;4941751;29;20533;-68
2023/06/25 02:51:46;;;;;;;17.97;16.17;;;;;;;19.29;88.48;101545.53;4943336;28;20407;-67
2023/06/25 02:54:15;;;;;;;17.20;15.53;;;;;;;19.34;88.23;101545.63;4945770;28;20811;-67
2023/06/25 02:56:44;;;;;;;18.13;16.20;;;;;;;19.37;88.73;101542.41;4939787;29;20526;-68
2023/06/25 02:59:14;;;;;;;17.70;15.90;;;;;;;19.36;89.29;101545.41;4941467;29;20468;-67
2023/06/25 03:01:43;;;;;;;20.50;18.50;;;;;;;19.35;89.52;101544.56;4945872;29;20998;-67
2023/06/25 03:04:13;;;;;;;19.37;17.47;;;;;;;19.32;90.09;101538.72;4938624;29;20862;-66
2023/06/25 03:06:43;;;;;;;21.60;19.50;;;;;;;19.24;91.00;101537.19;4941201;29;20447;-67
2023/06/25 03:09:12;;;;;;;19.43;17.60;;;;;;;19.23;91.16;101534.69;4937430;29;20812;-67
2023/06/25 03:11:41;;;;;;;20.73;18.60;;;;;;;19.17;92.48;101536.50;4938646;29;20419;-67
2023/06/25 03:14:10;;;;;;;21.33;19.13;;;;;;;19.25;92.65;101538.03;4935948;29;20411;-67
2023/06/25 03:16:53;;;;;;;23.77;19.17;;;;;;;19.18;93.19;101532.69;4939640;29;20452;-67
2023/06/25 03:19:23;;;;;;;25.43;20.40;;;;;;;19.21;93.70;101537.69;4936042;29;20407;-66
2023/06/25 03:21:53;;;;;;;21.20;19.17;;;;;;;19.18;93.72;101521.72;4947200;29;20494;-67
2023/06/25 03:24:22;;;;;;;21.73;19.53;;;;;;;19.17;94.16;101530.22;4935804;29;20439;-67
2023/06/25 03:26:53;;;;;;;23.03;20.60;;;;;;;19.24;93.47;101526.22;4936429;29;20450;-66
2023/06/25 03:29:22;;;;;;;22.10;19.43;;;;;;;19.32;92.87;101522.25;4939985;29;20476;-67
2023/06/25 03:31:51;;;;;;;23.70;20.03;;;;;;;19.33;92.80;101529.41;4936542;29;20419;-67
2023/06/25 03:34:25;;;;;;;20.17;18.10;;;;;;;19.37;92.27;101523.19;4937587;29;20422;-67
2023/06/25 03:36:55;;;;;;;22.80;20.40;;;;;;;19.48;90.83;101522.34;4944986;28;20867;-67
2023/06/25 03:39:25;;;;;;;21.53;19.23;;;;;;;19.49;90.35;101523.19;4937134;29;20539;-67
2023/06/25 03:41:54;;;;;;;20.47;17.60;;;;;;;19.65;88.96;101516.06;4936109;29;20447;-67
2023/06/25 03:44:24;;;;;;;20.13;18.07;;;;;;;19.59;89.36;101519.78;4935828;29;20415;-67
2023/06/25 03:46:53;;;;;;;20.57;18.57;;;;;;;19.59;90.26;101522.53;4936982;29;20465;-67
2023/06/25 03:49:25;;;;;;;20.37;18.37;;;;;;;19.51;92.68;101516.34;4937789;29;20500;-67
2023/06/25 03:51:54;;;;;;;24.30;21.67;;;;;;;19.47;91.42;101520.66;4950589;28;20487;-67
2023/06/25 03:54:23;;;;;;;19.80;17.80;;;;;;;19.52;90.52;101519.94;4940450;29;20447;-66
2023/06/25 03:56:53;;;;;;;22.17;19.87;;;;;;;19.53;90.91;101518.84;4943368;28;20439;-67
2023/06/25 03:59:22;;;;;;;21.20;19.00;;;;;;;19.53;90.50;101514.19;4941682;29;20441;-67
2023/06/25 04:01:52;;;;;;;19.50;17.60;;;;;;;19.70;89.20;101514.25;4954543;28;20459;-67
2023/06/25 04:04:21;;;;;;;18.50;16.70;;;;;;;19.64;88.84;101514.38;4935234;29;20420;-67
2023/06/25 04:06:51;;;;;;;17.43;15.80;;;;;;;19.71;87.74;101515.88;4935799;29;21014;-67
2023/06/25 04:09:21;;;;;;;18.97;16.73;;;;;;;19.72;86.99;101517.56;4935174;29;20560;-67
2023/06/25 04:11:50;;;;;;;16.77;15.07;;;;;;;19.77;86.11;101514.91;4943209;29;20859;-67
2023/06/25 04:14:20;;;;;;;20.50;16.17;;;;;;;19.82;86.03;101522.38;4934965;29;20849;-67
2023/06/25 04:16:49;;;;;;;23.60;17.60;;;;;;;19.86;85.92;101513.41;4936900;29;20439;-67
2023/06/25 04:19:18;;;;;;;17.03;15.33;;;;;;;19.94;85.38;101520.41;4937035;29;20442;-67
2023/06/25 04:21:47;;;;;;;18.73;16.83;;;;;;;19.94;85.32;101518.47;4939929;29;20448;-66
2023/06/25 04:24:18;;;;;;;19.20;15.53;;;;;;;19.98;87.45;101520.75;4940620;29;20440;-67
2023/06/25 04:26:47;;;;;;;15.93;14.50;;;;;;;19.95;87.77;101522.06;4942931;29;20443;-66
2023/06/25 04:29:16;;;;;;;20.10;18.07;;;;;;;20.06;87.51;101518.41;4942317;29;20806;-67
2023/06/25 04:31:45;;;;;;;17.20;15.23;;;;;;;20.16;86.48;101518.56;4941471;29;20844;-67
2023/06/25 04:34:15;;;;;;;20.67;15.87;;;;;;;20.23;85.83;101523.91;4934919;29;20445;-67
2023/06/25 04:36:47;;;;;;;16.00;14.50;;;;;;;20.35;84.84;101522.75;4935014;29;20973;-67
2023/06/25 04:39:19;;;;;;;15.57;13.90;;;;;;;20.40;83.08;101522.00;4934857;29;20424;-68
2023/06/25 04:41:48;;;;;;;15.10;13.50;;;;;;;20.42;82.09;101519.84;4938231;29;20437;-65
2023/06/25 04:44:18;;;;;;;13.90;12.50;;;;;;;20.49;80.33;101520.47;4935173;28;20455;-67
2023/06/25 04:46:47;;;;;;;15.33;13.10;;;;;;;20.61;77.22;101520.38;4938308;29;20444;-67
2023/06/25 04:49:18;;;;;;;12.43;11.20;;;;;;;20.74;75.42;101517.25;4936636;29;20820;-67
2023/06/25 04:51:47;;;;;;;13.03;11.73;;;;;;;20.81;74.15;101516.00;4937377;29;20493;-66
2023/06/25 04:54:18;;;;;;;11.60;10.53;;;;;;;20.86;73.38;101517.97;4949804;29;20417;-67
2023/06/25 04:56:47;;;;;;;12.60;10.20;;;;;;;20.96;72.92;101528.28;4942405;29;20551;-67
2023/06/25 04:59:16;;;;;;;12.57;10.10;;;;;;;21.05;70.80;101521.25;4942987;29;20406;-68
2023/06/25 05:01:45;;;;;;;11.60;9.23;;;;;;;21.15;71.68;101527.75;4940542;28;20815;-66
2023/06/25 05:04:15;;;;;;;9.17;8.27;;;;;;;21.28;70.16;101522.91;4936923;29;20420;-66
2023/06/25 05:06:44;;;;;;;9.83;8.03;;;;;;;21.45;67.65;101520.91;4937154;29;20503;-67
2023/06/25 05:09:13;;;;;;;10.13;9.13;;;;;;;21.44;68.47;101519.25;4939424;29;20443;-67
2023/06/25 05:11:43;;;;;;;9.63;7.93;;;;;;;21.46;68.10;101519.81;4937023;29;20468;-68
2023/06/25 05:14:12;;;;;;;10.37;7.53;;;;;;;21.57;67.26;101518.81;4939044;29;20418;-67
2023/06/25 05:16:42;;;;;;;9.03;8.13;;;;;;;21.73;64.85;101515.16;4936970;29;20439;-67
2023/06/25 05:19:11;;;;;;;13.37;8.57;;;;;;;21.71;65.54;101514.56;4938391;29;20427;-67
2023/06/25 05:21:40;;;;;;;10.13;8.67;;;;;;;21.68;65.96;101515.94;4939958;29;20425;-67
2023/06/25 05:24:09;;;;;;;13.73;8.03;;;;;;;21.74;66.02;101513.19;4931936;29;20439;-67
2023/06/25 05:26:38;;;;;;;9.50;8.50;;;;;;;21.79;66.53;101516.81;4942704;29;20423;-67
2023/06/25 05:29:09;;;;;;;8.40;7.50;;;;;;;21.84;66.34;101516.88;4945448;29;20484;-67
2023/06/25 05:31:38;;;;;;;7.87;7.13;;;;;;;21.96;65.61;101516.75;4943754;29;20469;-68
2023/06/25 05:34:08;;;;;;;9.43;8.07;;;;;;;22.12;64.62;101514.94;4942213;29;20451;-67
2023/06/25 05:36:37;;;;;;;9.00;8.10;;;;;;;22.00;63.03;101513.19;4938407;29;20469;-67
2023/06/25 05:39:06;;;;;;;8.77;7.87;;;;;;;21.99;63.13;101511.53;4939545;29;20499;-67
2023/06/25 05:41:39;;;;;;;9.50;8.47;;;;;;;22.08;62.78;101515.47;4939135;29;20432;-67
2023/06/25 05:44:10;;;;;;;8.80;7.90;;;;;;;22.17;62.51;101506.72;4941329;29;20484;-67
2023/06/25 05:46:39;;;;;;;8.00;7.20;;;;;;;22.25;62.65;101508.97;4941636;29;20512;-67
2023/06/25 05:49:10;;;;;;;8.33;7.43;;;;;;;22.39;62.18;101505.50;4943394;29;20527;-67
2023/06/25 05:51:39;;;;;;;9.07;8.00;;;;;;;22.52;61.64;101506.94;4937538;29;20468;-66
2023/06/25 05:54:09;;;;;;;9.77;8.80;;;;;;;22.56;63.88;101510.81;4938688;29;20450;-67
2023/06/25 05:56:38;;;;;;;8.83;8.00;;;;;;;22.78;63.08;101508.78;4945006;29;20452;-67
2023/06/25 05:59:07;;;;;;;9.93;7.80;;;;;;;22.83;63.00;101511.56;4937484;29;20508;-67
2023/06/25 06:01:38;;;;;;;9.97;7.97;;;;;;;23.07;60.90;101511.13;4938341;29;20807;-67
2023/06/25 06:04:08;;;;;;;9.67;8.53;;;;;;;23.17;60.47;101508.38;4932148;29;20435;-67
2023/06/25 06:06:37;;;;;;;8.80;7.00;;;;;;;23.28;60.77;101507.34;4937058;29;20461;-67
2023/06/25 06:09:06;;;;;;;7.67;6.87;;;;;;;23.38;57.89;101502.63;4936502;29;20447;-66
2023/06/25 06:11:35;;;;;;;8.20;7.50;;;;;;;23.51;57.57;101501.34;4943377;29;20467;-67
2023/06/25 06:14:05;;;;;;;7.63;6.83;;;;;;;23.74;57.53;101500.81;4936943;29;20429;-68
2023/06/25 06:16:34;;;;;;;8.57;7.60;;;;;;;23.98;56.04;101505.78;4940534;29;20485;-66
2023/06/25 06:19:04;;;;;;;8.30;7.50;;;;;;;24.19;55.50;101510.25;4936316;29;20437;-67
2023/06/25 06:21:34;;;;;;;10.93;6.80;;;;;;;24.21;54.96;101516.31;4936623;29;20411;-68
2023/06/25 06:24:03;;;;;;;8.73;7.93;;;;;;;24.44;54.19;101515.75;4944393;29;20464;-67
2023/06/25 06:26:35;;;;;;;9.17;8.20;;;;;;;24.41;53.77;101519.03;4940897;29;20459;-67
2023/06/25 06:29:04;;;;;;;9.07;7.53;;;;;;;24.57;53.49;101517.91;4937093;29;20436;-67
2023/06/25 06:31:33;;;;;;;9.03;8.03;;;;;;;24.82;53.09;101511.47;4939241;29;20464;-67
2023/06/25 06:34:04;;;;;;;10.27;8.87;;;;;;;25.22;53.13;101512.44;4947941;29;20454;-67
2023/06/25 06:36:33;;;;;;;10.90;9.30;;;;;;;25.08;52.32;101507.50;4946277;28;20430;-67
2023/06/25 06:39:02;;;;;;;9.20;8.30;;;;;;;25.38;51.75;101502.91;4944287;29;20523;-67
2023/06/25 06:41:31;;;;;;;9.67;8.67;;;;;;;25.60;51.47;101508.09;4936977;29;20411;-67
2023/06/25 06:44:12;;;;;;;10.23;9.17;;;;;;;25.62;51.56;101503.91;4937800;29;20444;-68
2023/06/25 06:46:42;;;;;;;14.30;8.53;;;;;;;25.75;51.91;101505.22;4937145;29;20519;-67
2023/06/25 06:49:13;;;;;;;9.47;8.40;;;;;;;25.85;51.26;101502.38;4944966;29;20531;-67
2023/06/25 06:51:42;;;;;;;7.07;6.47;;;;;;;26.08;49.47;101501.59;4938531;28;21008;-68
2023/06/25 06:54:11;;;;;;;8.20;7.47;;;;;;;26.35;49.10;101499.16;4940097;29;20443;-68
2023/06/25 06:56:41;;;;;;;7.97;7.17;;;;;;;26.93;47.16;101507.41;4937593;29;20470;-67
2023/06/25 06:59:10;;;;;;;10.67;9.00;;;;;;;27.08;46.97;101510.00;4932865;29;20440;-68
2023/06/25 07:01:39;;;;;;;10.77;7.40;;;;;;;27.22;45.78;101505.34;4937507;29;20528;-68
2023/06/25 07:04:08;;;;;;;9.20;7.93;;;;;;;27.14;45.12;101507.97;4937329;29;20451;-68
2023/06/25 07:06:38;;;;;;;9.70;8.70;;;;;;;27.28;45.53;101502.50;4942701;29;20798;-67
2023/06/25 07:09:08;;;;;;;7.90;7.10;;;;;;;27.09;47.19;101503.31;4937272;29;20851;-66
2023/06/25 07:11:40;;;;;;;9.47;8.53;;;;;;;27.34;46.84;101496.59;4940944;29;20996;-67
2023/06/25 07:14:09;;;;;;;9.87;7.97;;;;;;;27.65;45.13;101502.53;4939088;29;20441;-67
2023/06/25 07:16:41;;;;;;;8.43;7.70;;;;;;;27.95;44.72;101504.00;4946626;29;20484;-67
2023/06/25 07:19:11;;;;;;;8.67;7.77;;;;;;;27.70;44.29;101501.63;4933702;29;20479;-68
2023/06/25 07:21:42;;;;;;;9.07;8.13;;;;;;;27.40;44.70;101494.56;4944135;29;20857;-67
2023/06/25 07:24:11;;;;;;;9.13;7.80;;;;;;;27.40;46.39;101495.34;4937802;29;20428;-67
2023/06/25 07:26:40;;;;;;;9.43;7.73;;;;;;;27.21;45.15;101494.53;4943925;28;20444;-67
2023/06/25 07:29:10;;;;;;;10.30;8.53;;;;;;;27.38;44.86;101492.06;4938978;29;20443;-67
2023/06/25 07:31:39;;;;;;;9.20;7.97;;;;;;;27.50;44.73;101488.84;4937926;29;20519;-67
2023/06/25 07:34:08;;;;;;;11.00;8.63;;;;;;;27.47;45.78;101490.25;4944735;29;20447;-68
2023/06/25 07:36:37;;;;;;;8.73;7.80;;;;;;;27.70;44.50;101494.09;4941410;29;20547;-67
2023/06/25 07:39:07;;;;;;;9.60;8.37;;;;;;;27.79;44.18;101492.28;4931788;29;20429;-68
2023/06/25 07:41:37;;;;;;;12.67;11.40;;;;;;;27.67;44.99;101489.16;4944993;29;20432;-68
2023/06/25 07:44:06;;;;;;;9.70;7.73;;;;;;;27.27;45.77;101489.72;4944263;29;20437;-68
2023/06/25 07:46:55;;;;;;;8.07;7.33;;;;;;;27.12;46.33;101494.38;4942483;29;20467;-68
2023/06/25 07:49:24;;;;;;;10.20;7.70;;;;;;;27.20;46.08;101496.50;4941664;29;20476;-67
2023/06/25 07:51:53;;;;;;;7.90;7.20;;;;;;;26.96;45.42;101494.88;4941404;29;20466;-66
2023/06/25 07:54:24;;;;;;;13.60;7.87;;;;;;;26.82;45.57;101494.72;4941529;29;20437;-68
2023/06/25 07:56:53;;;;;;;11.83;8.50;;;;;;;26.87;45.09;101491.13;4938292;29;20842;-67
2023/06/25 07:59:22;;;;;;;10.27;9.27;;;;;;;26.95;45.86;101496.84;4936472;29;20495;-66
2023/06/25 08:01:52;;;;;;;9.27;8.37;;;;;;;27.00;45.89;101494.00;4937949;29;20492;-67
2023/06/25 08:04:21;;;;;;;9.40;8.50;;;;;;;27.01;46.06;101490.09;4942202;29;20504;-66
2023/06/25 08:06:50;;;;;;;8.23;7.53;;;;;;;26.97;46.12;101494.56;4936890;29;20547;-68
2023/06/25 08:09:19;;;;;;;10.13;7.83;;;;;;;27.01;46.30;101489.25;4936926;29;20492;-68
2023/06/25 08:11:50;;;;;;;9.50;8.60;;;;;;;26.79;46.90;101495.31;4927757;29;20476;-68
2023/06/25 08:14:19;;;;;;;10.63;9.50;;;;;;;26.72;46.79;101487.34;4936868;29;20448;-67
2023/06/25 08:16:49;;;;;;;10.83;9.73;;;;;;;26.71;46.98;101490.44;4939752;29;20484;-68
2023/06/25 08:19:18;;;;;;;9.47;8.57;;;;;;;26.82;46.88;101489.16;4942823;28;20442;-67
2023/06/25 08:21:47;;;;;;;10.80;8.47;;;;;;;27.27;45.39;101492.50;4936593;29;20425;-67
2023/06/25 08:24:16;;;;;;;11.30;8.67;;;;;;;27.66;44.50;101490.28;4930009;29;20535;-66
2023/06/25 08:26:45;;;;;;;7.83;7.13;;;;;;;27.53;44.25;101488.28;4941983;29;20556;-67
2023/06/25 08:29:16;;;;;;;7.90;7.13;;;;;;;27.44;43.75;101490.03;4939917;29;20919;-68
2023/06/25 08:31:45;;;;;;;8.67;7.53;;;;;;;27.46;43.47;101487.78;4947428;29;20468;-67
2023/06/25 08:34:14;;;;;;;8.03;7.30;;;;;;;27.34;44.08;101484.63;4923530;29;20500;-67
2023/06/25 08:36:43;;;;;;;12.53;7.77;;;;;;;27.79;44.83;101486.72;4938876;29;20452;-67
2023/06/25 08:39:12;;;;;;;8.83;7.60;;;;;;;27.75;44.99;101485.69;4936776;29;20429;-68
2023/06/25 08:41:41;;;;;;;7.57;6.87;;;;;;;27.84;44.02;101494.16;4936172;29;20432;-67
2023/06/25 08:44:11;;;;;;;13.90;10.00;;;;;;;28.03;44.62;101492.97;4931874;29;20440;-69
2023/06/25 08:46:46;;;;;;;13.57;12.23;;;;;;;28.26;44.18;101493.19;4936566;29;20508;-65
2023/06/25 08:49:17;;;;;;;8.00;7.20;;;;;;;28.50;43.16;101502.19;4936141;29;20772;-67
2023/06/25 08:51:46;;;;;;;8.40;7.60;;;;;;;28.32;43.91;101494.75;4937591;29;20464;-67
2023/06/25 08:54:15;;;;;;;8.13;7.33;;;;;;;28.63;42.88;101483.84;4929440;29;20445;-67
2023/06/25 08:56:44;;;;;;;9.00;8.20;;;;;;;28.60;44.04;101495.59;4935328;29;20547;-67
2023/06/25 08:59:13;;;;;;;9.57;8.53;;;;;;;28.60;42.92;101488.09;4939616;29;20766;-67
2023/06/25 09:01:44;;;;;;;9.77;8.77;;;;;;;28.60;43.45;101490.03;4936886;29;20466;-68
2023/06/25 09:04:16;;;;;;;8.73;7.93;;;;;;;28.62;44.33;101499.72;4937215;29;20432;-66
2023/06/25 09:06:45;;;;;;;9.07;8.23;;;;;;;28.57;43.46;101485.91;4942176;29;20476;-67
2023/06/25 09:09:31;;;;;;;11.30;10.27;;;;;;;28.40;43.62;101485.69;4942224;29;20440;-67
2023/06/25 09:12:00;;;;;;;9.23;8.33;;;;;;;28.61;42.95;101475.78;4940516;29;20836;-68
2023/06/25 09:14:33;;;;;;;9.37;8.47;;;;;;;28.13;43.73;101480.09;4947038;29;20454;-68
2023/06/25 09:17:04;;;;;;;8.93;8.13;;;;;;;28.40;43.87;101480.94;4935986;29;20511;-67
2023/06/25 09:19:33;;;;;;;9.67;8.37;;;;;;;28.71;43.66;101481.19;4940116;29;20436;-68
2023/06/25 09:22:02;;;;;;;9.50;8.60;;;;;;;28.97;43.28;101475.09;4936398;29;20468;-67
2023/06/25 09:24:31;;;;;;;10.03;9.00;;;;;;;29.13;43.22;101477.25;4936947;29;20888;-67
2023/06/25 09:27:00;;;;;;;9.60;8.10;;;;;;;29.36;42.91;101478.97;4937158;29;20460;-68
2023/06/25 09:29:37;;;;;;;9.37;8.50;;;;;;;29.30;41.45;101477.41;4943394;28;20808;-67
2023/06/25 09:32:10;;;;;;;14.93;8.40;;;;;;;28.97;42.24;101473.13;4934935;29;20519;-68
2023/06/25 09:34:42;;;;;;;9.93;8.87;;;;;;;28.60;43.05;101465.81;4938510;29;20441;-67
2023/06/25 09:37:11;;;;;;;8.70;7.80;;;;;;;28.45;43.50;101477.25;4935165;29;20444;-67
2023/06/25 09:39:41;;;;;;;10.00;8.37;;;;;;;27.85;45.38;101476.34;4940721;29;20424;-68
2023/06/25 09:42:11;;;;;;;9.00;8.20;;;;;;;27.58;45.75;101468.72;4935130;29;20955;-67
2023/06/25 09:44:41;;;;;;;10.30;9.30;;;;;;;27.62;45.52;101464.22;4936380;28;20527;-68
2023/06/25 09:47:17;;;;;;;8.10;7.30;;;;;;;27.64;45.55;101453.63;4930116;29;20460;-66
2023/06/25 09:49:47;;;;;;;8.10;7.30;;;;;;;27.50;46.71;101450.75;4937499;29;20428;-67
2023/06/25 09:52:19;;;;;;;9.80;8.47;;;;;;;28.09;46.26;101458.38;4937894;29;20460;-68
2023/06/25 09:54:49;;;;;;;7.43;6.73;;;;;;;27.91;45.40;101450.09;4939045;29;20428;-68
2023/06/25 09:57:20;;;;;;;9.97;7.20;;;;;;;27.52;45.56;101447.69;4937626;29;20585;-67
2023/06/25 09:59:49;;;;;;;9.47;7.93;;;;;;;27.98;45.62;101451.34;4934749;29;20432;-68
2023/06/25 10:02:21;;;;;;;7.50;6.80;;;;;;;28.17;44.54;101447.72;4940691;29;20812;-68
2023/06/25 10:04:51;;;;;;;8.20;7.40;;;;;;;27.86;44.74;101450.19;4940073;29;20432;-66
2023/06/25 10:07:21;;;;;;;9.60;7.67;;;;;;;27.91;44.06;101442.59;4955467;28;20656;-67
2023/06/25 10:09:54;;;;;;;9.50;7.10;;;;;;;27.93;44.10;101434.75;4942987;28;21014;-68
2023/06/25 10:12:24;;;;;;;7.77;5.50;;;;;;;27.54;44.44;101439.88;4937907;29;20500;-67
2023/06/25 10:14:54;;;;;;;12.47;8.53;;;;;;;27.56;44.97;101432.06;4933860;29;20540;-67
2023/06/25 10:17:25;;;;;;;8.40;7.30;;;;;;;27.88;43.93;101428.47;4937185;29;20467;-67
2023/06/25 10:19:56;;;;;;;6.40;5.80;;;;;;;27.91;44.04;101422.28;4944505;29;20491;-67
2023/06/25 10:22:27;;;;;;;7.60;6.90;;;;;;;27.96;43.32;101417.47;4934643;29;20523;-67
2023/06/25 10:24:57;;;;;;;8.87;7.97;;;;;;;27.86;43.86;101419.59;4933810;29;20432;-67
2023/06/25 10:27:30;;;;;;;6.30;5.70;;;;;;;27.43;44.72;101425.28;4935064;28;20464;-67
2023/06/25 10:29:59;;;;;;;9.17;5.93;;;;;;;27.42;44.87;101431.13;4934527;29;20799;-66
2023/06/25 10:32:30;;;;;;;10.10;7.27;;;;;;;27.23;45.55;101417.25;4935148;29;20491;-68
2023/06/25 10:35:03;;;;;;;7.60;6.90;;;;;;;27.44;46.28;101413.06;4938699;29;20440;-67
2023/06/25 10:37:33;;;;;;;7.97;6.70;;;;;;;27.74;45.48;101405.34;4955063;28;20499;-69
2023/06/25 10:40:04;;;;;;;9.53;7.53;;;;;;;27.85;46.06;101413.19;4939618;29;20945;-67
2023/06/25 10:42:35;;;;;;;9.33;7.70;;;;;;;27.95;45.17;101412.19;4946308;28;20744;-68
2023/06/25 10:45:08;;;;;;;7.50;6.83;;;;;;;28.57;44.38;101405.16;4940978;29;20433;-68
2023/06/25 10:47:39;;;;;;;7.57;6.90;;;;;;;28.08;44.68;101409.44;4938411;29;20452;-67
2023/06/25 10:50:09;;;;;;;9.20;8.40;;;;;;;27.69;46.10;101409.06;4938624;29;20443;-68
2023/06/25 10:52:39;;;;;;;6.97;6.20;;;;;;;27.51;47.14;101401.56;4950398;29;20558;-67
2023/06/25 10:55:09;;;;;;;8.83;8.03;;;;;;;27.20;47.86;101401.19;4943168;29;20437;-66
2023/06/25 10:57:38;;;;;;;7.70;7.03;;;;;;;27.68;46.76;101390.72;4943031;28;20547;-67
2023/06/25 11:00:08;;;;;;;7.83;7.13;;;;;;;28.13;46.63;101396.59;4945330;29;20435;-67
2023/06/25 11:02:39;;;;;;;7.40;6.60;;;;;;;28.83;44.93;101389.59;4943053;29;20432;-67
2023/06/25 11:05:08;;;;;;;8.40;7.60;;;;;;;29.46;43.70;101394.25;4947959;29;20432;-67
2023/06/25 11:07:37;;;;;;;7.93;7.13;;;;;;;28.58;45.39;101387.31;4940400;29;21003;-68
2023/06/25 11:10:08;;;;;;;8.00;7.23;;;;;;;28.43;45.50;101391.25;4943327;29;20440;-67
2023/06/25 11:12:38;;;;;;;8.83;8.03;;;;;;;28.53;46.30;101384.63;4938054;29;20447;-68
2023/06/25 11:15:07;;;;;;;8.33;7.53;;;;;;;28.46;45.37;101389.81;4939197;29;20458;-68
2023/06/25 11:17:39;;;;;;;8.70;7.90;;;;;;;28.55;45.67;101385.16;4935928;29;20477;-67
2023/06/25 11:20:09;;;;;;;11.40;7.40;;;;;;;28.69;44.33;101383.19;4943194;29;20966;-68
2023/06/25 11:22:41;;;;;;;9.77;6.40;;;;;;;28.74;44.71;101385.06;4941404;29;20432;-67
2023/06/25 11:25:12;;;;;;;7.43;6.70;;;;;;;28.48;44.95;101370.81;4944071;29;20429;-67
2023/06/25 11:27:42;;;;;;;8.03;7.30;;;;;;;28.78;45.37;101364.63;4938853;29;20464;-67
2023/06/25 11:30:11;;;;;;;10.70;7.10;;;;;;;28.80;44.36;101367.09;4944103;29;20428;-67